Terminal Aerodrome Forecast
Issued by NWS

Home | Current Version | Previous Version | Graphics & Text | Print | Product List | Glossary On
Versions: 1 2 3 4 5 6 7 8 9 10 11 12 13 14 15 16 17 18 19 20 21 22 23 24 25 26
000
FTUS43 KABR 262300
TAFATY
TAF
KATY 262340Z 2700/2724 01015KT P6SM SKC
     FM270200 01008KT P6SM SKC
     FM271300 17008KT P6SM FEW050 BKN080 OVC120
     FM272000 18012KT P6SM -RA SCT025 OVC040=

USA.gov is the U.S. government's official web portal to all federal, state and local government web resources and services.